Ir al contenido principal

[Overrun] Delta Airlines McDonnell Douglas MD-88 N909DL | La Guardia

Vuelo DL-1086 de Atlanta,GA a New York La Guardia,NY (USA) con 125 passengers y 5 tripulantes, aterrizó en el aeropuerto La Guardia's, pista 13 luego de hacer una aproximación ILS. Hay reportes de heridos con lesiones menores, la aeronave sufrió daños considerables.

Los suscriptores deben ingresar al blog para ver el contenido multimedia.



METAR

15:24 UTC / 10:24 local time:
KLGA 051524Z 04007KT 1/4SM R04/2600V2800FT SN FZFG VV009 M03/M04 A3013 RMK AO2 P0004

15:51 UTC / 10:51 local time:
KLGA 051551Z 01008KT 1/4SM R04/2800V3500FT SN FZFG VV009 M03/M05 A3012 RMK AO2 SLP199 P0006 T10331050

16:22 UTC / 11:22 local time:
KLGA 051622Z 01008KT 1/4SM R04/3000VP6000FT SN FZFG VV011 M03/M05 A3012 RMK AO2 SFC VIS 1/2 P0003


Un vídeo publicado por _veeestchic_ (@_veeestchic_) el


Una foto publicada por _veeestchic_ (@_veeestchic_) el


Un vídeo publicado por Larry Donnell (@beyond_greatnes) el

Comentarios

Entradas más populares de este blog

EL MODELO DE REASON

CAUSALIDAD DE LOS ACCIDENTES — EL MODELO DE REASON

La aceptación en toda la industria del concepto de accidente de organización fue posible gracias a un sencillo pero gráficamente poderoso modelo elaborado por el Profesor James Reason, que proporcionó un medio para comprender cómo la aviación (o cualquier otro sistema de producción) funciona con éxito o se dirige al fracaso. Con arreglo a este modelo, los accidentes se producen cuando cierto número de factores permiten que ocurran — siendo cada uno de ellos necesario pero en sí no suficiente para quebrar las defensas del sistema. Debido a que los sistemas complejos como la aviación están extremadamente bien defendidos por capas de defensas profundas, las fallas en un punto único rara vez tienen consecuencias en el sistema aeronáutico. Las fallas de equipo o los errores operacionales nunca son la causa del quiebre de las defensas de seguridad operacional, sino más bien los elementos activadores. Los quiebres de…

La incursión en Barcelona - Una aproximación desde la Seguridad Operacional

Incursión en la pista. Todo suceso en un aeródromo que suponga la presencia incorrecta de una aeronave, vehículo o persona en la zona protegida de una superficie designada para el aterrizaje o despegue de una aeronave (DOC 9870 Manual sobre la prevención de incursiones en la pista)

Según los datos publicados en The Aviation Herald la distancia entre el A340 de AR y el B767 de  UTAir era de 1,7 millas. La siguiente imagen muestra la distancia entre ambas. En la calle M cruzando la pista 02, en base a esos datos publicados la situación quedaría así:




Cabe aclarar algo sobre el video que se ha viralizado en las redes. Las distancias no son lo que parece, el zoom y la posición del que filma dan la sensación de cercanía que no es tal. La posición del A340 que se encuentra en primer plano y el avión aproximando en segundo plano, da espectacularidad y parece que están a punto de impactar, en mi opinión, no es así, teniendo en cuenta los datos de Aviation Herald.
Este comentario no le quita gr…

COMPOSICIÓN DE LAS CENIZAS VOLCÁNICAS Y DE LOS GASES ASOCIADOS

Volcanes activos en la zona cordillerana

COMPOSICIÓN DE LAS CENIZAS VOLCÁNICAS Y DE LOS GASES ASOCIADOS

Esencialmente las nubes de cenizas volcánicas están constituidas por partículas finas de roca pulverizada, cuya composición corresponde a la del magma en el interior de los volcanes. Por consiguiente, la composición de las nubes de cenizas volcánicas varía de un volcán a otro. No obstante, en términos generales, están predominantemente constituidas por sílice (> 50%) junto con cantidades más pequeñas de óxidos de aluminio, hierro, calcio y sodio (Tabla 2-1).
El sílice es una forma de silicato vítreo y examinado por exploración microscópica de electrones se parece a cascos de vidrio de bordes agudos.
Los materiales de silicato de vidrio son muy duros. Ordinariamente de una dureza de nivel 5 ó 6 en la escala de Mohs (La escala Mohs recibe su nombre al minerólogo alemán Friedrich Mohs y se basa en una escala de dureza del talco qu…